Time;durP1;ratioP1;P1;durP2;ratioP2;P2;SDS_P1;SDS_P2;PMS_P1;PMS_P2;Temp;Humidity;BMP_temperature;BMP_pressure;BME280_temperature;BME280_humidity;BME280_pressure;Samples;Min_cycle;Max_cycle;Signal;HPM_P1;HPM_P2
2022/03/03 00:00:50;;;;;;;27.48;15.90;;;;;;;;;;4909720;29;20044;-79
2022/03/03 00:03:15;;;;;;;28.20;16.02;;;;;;;;;;4925159;29;20442;-80
2022/03/03 00:05:41;;;;;;;26.92;15.82;;;;;;;;;;4911226;29;20047;-79
2022/03/03 00:08:06;;;;;;;26.13;15.68;;;;;;;;;;4923924;29;20044;-80
2022/03/03 00:10:32;;;;;;;25.52;15.27;;;;;;;;;;4908569;29;20043;-80
2022/03/03 00:12:57;;;;;;;29.30;16.42;;;;;;;;;;4924499;29;20123;-81
2022/03/03 00:15:22;;;;;;;27.38;16.48;;;;;;;;;;4906507;29;20091;-80
2022/03/03 00:17:48;;;;;;;26.42;15.75;;;;;;;;;;4924110;29;20078;-80
2022/03/03 00:20:13;;;;;;;29.52;16.05;;;;;;;;;;4939098;29;23026;-80
2022/03/03 00:22:38;;;;;;;28.00;16.13;;;;;;;;;;4926197;29;20046;-80
2022/03/03 00:25:05;;;;;;;26.52;16.70;;;;;;;;;;4910518;29;20415;-79
2022/03/03 00:27:30;;;;;;;28.77;15.55;;;;;;;;;;4926527;29;20040;-80
2022/03/03 00:29:55;;;;;;;29.45;16.70;;;;;;;;;;4911557;29;20040;-80
2022/03/03 00:32:21;;;;;;;25.85;15.70;;;;;;;;;;4912472;29;20453;-79
2022/03/03 00:34:48;;;;;;;25.25;15.20;;;;;;;;;;4927079;29;20110;-79
2022/03/03 00:37:14;;;;;;;32.65;16.98;;;;;;;;;;4927104;29;20047;-80
2022/03/03 00:39:39;;;;;;;26.33;15.75;;;;;;;;;;4910935;29;20446;-79
2022/03/03 00:42:05;;;;;;;28.13;15.82;;;;;;;;;;4902675;29;20035;-80
2022/03/03 00:44:30;;;;;;;27.80;16.15;;;;;;;;;;4910536;29;20048;-80
2022/03/03 00:46:55;;;;;;;26.58;16.10;;;;;;;;;;4926549;29;20044;-79
2022/03/03 00:49:20;;;;;;;26.63;15.27;;;;;;;;;;4912679;29;20043;-80
2022/03/03 00:51:46;;;;;;;25.08;15.45;;;;;;;;;;4925137;29;20042;-80
2022/03/03 00:54:11;;;;;;;27.15;15.88;;;;;;;;;;4941316;29;20044;-80
2022/03/03 00:56:36;;;;;;;27.35;15.43;;;;;;;;;;4910370;29;20028;-79
2022/03/03 00:59:03;;;;;;;28.05;16.83;;;;;;;;;;4910714;29;21071;-79
2022/03/03 01:01:28;;;;;;;27.02;15.50;;;;;;;;;;4919154;29;20698;-79
2022/03/03 01:03:53;;;;;;;26.83;16.15;;;;;;;;;;4906941;29;20044;-78
2022/03/03 01:06:19;;;;;;;25.63;15.68;;;;;;;;;;4942583;29;20051;-79
2022/03/03 01:08:44;;;;;;;28.95;16.60;;;;;;;;;;4920548;29;20130;-81
2022/03/03 01:11:09;;;;;;;26.75;15.25;;;;;;;;;;4904685;29;20068;-79
2022/03/03 01:13:35;;;;;;;25.33;15.35;;;;;;;;;;4914618;29;20046;-79
2022/03/03 01:16:00;;;;;;;26.23;16.27;;;;;;;;;;4927652;29;20031;-79
2022/03/03 01:18:25;;;;;;;27.98;16.13;;;;;;;;;;4927674;29;20040;-79
2022/03/03 01:20:52;;;;;;;29.67;16.65;;;;;;;;;;4913032;29;20036;-79
2022/03/03 01:23:17;;;;;;;27.95;15.98;;;;;;;;;;4910442;29;20582;-78
2022/03/03 01:25:42;;;;;;;26.27;16.40;;;;;;;;;;4924282;29;20051;-79
2022/03/03 01:28:08;;;;;;;26.20;15.52;;;;;;;;;;4910377;29;20073;-79
2022/03/03 01:30:34;;;;;;;29.85;16.75;;;;;;;;;;4924769;29;20071;-79
2022/03/03 01:32:59;;;;;;;24.33;15.32;;;;;;;;;;4908967;29;20123;-79
2022/03/03 01:35:24;;;;;;;26.40;15.55;;;;;;;;;;4924975;29;20052;-79
2022/03/03 01:37:50;;;;;;;27.55;15.52;;;;;;;;;;4911907;29;20120;-79
2022/03/03 01:40:15;;;;;;;30.00;16.33;;;;;;;;;;4941255;29;20039;-79
2022/03/03 01:42:40;;;;;;;27.35;15.75;;;;;;;;;;4942249;29;20831;-80
2022/03/03 01:45:10;;;;;;;28.58;16.88;;;;;;;;;;4925422;29;20040;-79
2022/03/03 01:47:35;;;;;;;25.50;16.00;;;;;;;;;;4911677;29;20075;-81
2022/03/03 01:50:01;;;;;;;29.88;16.10;;;;;;;;;;4914477;29;20573;-80
2022/03/03 01:52:29;;;;;;;28.88;16.45;;;;;;;;;;4907821;29;20146;-80
2022/03/03 01:54:54;;;;;;;24.42;15.65;;;;;;;;;;4925055;29;20074;-79
2022/03/03 01:57:20;;;;;;;24.75;16.00;;;;;;;;;;4909955;29;20095;-80
2022/03/03 01:59:46;;;;;;;28.95;15.98;;;;;;;;;;4922607;29;20857;-79
2022/03/03 02:02:12;;;;;;;27.63;15.80;;;;;;;;;;4938300;28;20032;-80
2022/03/03 02:04:38;;;;;;;27.65;16.48;;;;;;;;;;4927689;29;20349;-80
2022/03/03 02:07:04;;;;;;;27.97;16.60;;;;;;;;;;4910670;29;20067;-79
2022/03/03 02:09:30;;;;;;;27.10;15.63;;;;;;;;;;4912239;29;20070;-80
2022/03/03 02:11:55;;;;;;;28.77;15.93;;;;;;;;;;4912263;29;20035;-80
2022/03/03 02:14:20;;;;;;;26.85;16.05;;;;;;;;;;4911685;29;20047;-80
2022/03/03 02:16:46;;;;;;;24.50;15.25;;;;;;;;;;4913274;29;20126;-80
2022/03/03 02:19:17;;;;;;;26.73;16.00;;;;;;;;;;4925330;29;20739;-79
2022/03/03 02:21:51;;;;;;;25.80;15.82;;;;;;;;;;4926657;29;20470;-81
2022/03/03 02:24:20;;;;;;;28.63;16.27;;;;;;;;;;4910295;29;20382;-81
2022/03/03 02:26:46;;;;;;;29.08;16.77;;;;;;;;;;4911327;29;20047;-80
2022/03/03 02:29:11;;;;;;;30.13;16.92;;;;;;;;;;4927343;29;20177;-80
2022/03/03 02:31:36;;;;;;;29.80;18.40;;;;;;;;;;4910052;29;20501;-80
2022/03/03 02:34:02;;;;;;;28.67;17.83;;;;;;;;;;4911652;29;20038;-80
2022/03/03 02:36:28;;;;;;;32.03;18.50;;;;;;;;;;4926697;29;20570;-80
2022/03/03 02:38:55;;;;;;;31.25;18.23;;;;;;;;;;4927444;29;20418;-80
2022/03/03 02:41:22;;;;;;;30.90;18.48;;;;;;;;;;4909178;28;20376;-79
2022/03/03 02:43:47;;;;;;;43.30;19.60;;;;;;;;;;4940820;28;20047;-80
2022/03/03 02:46:13;;;;;;;32.33;19.02;;;;;;;;;;4925701;28;20482;-80
2022/03/03 02:48:38;;;;;;;35.95;18.80;;;;;;;;;;4927491;29;20070;-80
2022/03/03 02:51:05;;;;;;;31.80;18.17;;;;;;;;;;4926971;29;20023;-81
2022/03/03 02:53:34;;;;;;;34.30;18.95;;;;;;;;;;4911962;29;20493;-81
2022/03/03 02:55:59;;;;;;;32.65;18.52;;;;;;;;;;4927065;28;20039;-78
2022/03/03 02:58:25;;;;;;;33.13;19.95;;;;;;;;;;4911655;29;20073;-80
2022/03/03 03:00:53;;;;;;;34.15;20.13;;;;;;;;;;4910457;28;20078;-79
2022/03/03 03:03:19;;;;;;;37.00;19.90;;;;;;;;;;4913456;29;20077;-80
2022/03/03 03:05:46;;;;;;;31.98;19.88;;;;;;;;;;4911137;29;20106;-80
2022/03/03 03:08:11;;;;;;;35.90;20.95;;;;;;;;;;4929563;29;20035;-80
2022/03/03 03:10:37;;;;;;;32.60;19.58;;;;;;;;;;4911308;29;20114;-81
2022/03/03 03:13:04;;;;;;;35.53;19.80;;;;;;;;;;4911348;29;20047;-82
2022/03/03 03:15:29;;;;;;;31.77;19.20;;;;;;;;;;4940511;29;20035;-79
2022/03/03 03:17:55;;;;;;;32.95;19.67;;;;;;;;;;4927459;29;20549;-80
2022/03/03 03:20:20;;;;;;;32.53;20.52;;;;;;;;;;4926847;29;20042;-80
2022/03/03 03:22:46;;;;;;;36.35;19.67;;;;;;;;;;4912904;29;20039;-79
2022/03/03 03:25:13;;;;;;;34.35;20.52;;;;;;;;;;4924837;29;20138;-80
2022/03/03 03:27:40;;;;;;;30.98;19.63;;;;;;;;;;4942216;29;20039;-79
2022/03/03 03:30:08;;;;;;;32.63;19.92;;;;;;;;;;4923463;29;20062;-79
2022/03/03 03:32:33;;;;;;;33.55;19.58;;;;;;;;;;4910650;28;20046;-79
2022/03/03 03:34:59;;;;;;;35.25;19.70;;;;;;;;;;4925253;29;20043;-79
2022/03/03 03:37:24;;;;;;;33.55;19.90;;;;;;;;;;4910646;29;20042;-80
2022/03/03 03:39:49;;;;;;;35.13;19.95;;;;;;;;;;4941112;28;20380;-80
2022/03/03 03:42:15;;;;;;;34.22;20.10;;;;;;;;;;4910548;29;20050;-80
2022/03/03 03:44:40;;;;;;;32.85;19.80;;;;;;;;;;4911168;29;20043;-80
2022/03/03 03:47:06;;;;;;;33.35;19.80;;;;;;;;;;4909534;29;20049;-80
2022/03/03 03:49:33;;;;;;;35.10;20.92;;;;;;;;;;4909648;29;20047;-81
2022/03/03 03:51:58;;;;;;;33.47;19.88;;;;;;;;;;4909653;29;20035;-81
2022/03/03 03:54:23;;;;;;;33.70;20.08;;;;;;;;;;4909413;29;20074;-81
2022/03/03 03:56:49;;;;;;;35.15;20.58;;;;;;;;;;4924932;29;21065;-81
2022/03/03 03:59:14;;;;;;;35.42;20.70;;;;;;;;;;4928022;29;20054;-80
2022/03/03 04:01:39;;;;;;;35.15;20.80;;;;;;;;;;4926096;29;20049;-80
2022/03/03 04:04:05;;;;;;;32.30;18.92;;;;;;;;;;4930393;29;20039;-80
2022/03/03 04:06:31;;;;;;;31.42;20.02;;;;;;;;;;4913354;29;20061;-80
2022/03/03 04:08:56;;;;;;;31.85;19.75;;;;;;;;;;4913521;29;20043;-80
2022/03/03 04:11:22;;;;;;;33.28;19.38;;;;;;;;;;4945248;29;20043;-80
2022/03/03 04:13:47;;;;;;;33.03;19.95;;;;;;;;;;4929261;29;20462;-80
2022/03/03 04:16:12;;;;;;;32.63;20.10;;;;;;;;;;4912516;29;20066;-80
2022/03/03 04:18:38;;;;;;;33.88;19.30;;;;;;;;;;4914714;29;20046;-80
2022/03/03 04:21:05;;;;;;;32.05;20.20;;;;;;;;;;4928847;29;20081;-80
2022/03/03 04:23:30;;;;;;;32.60;19.83;;;;;;;;;;4912987;28;20045;-80
2022/03/03 04:25:56;;;;;;;31.77;20.02;;;;;;;;;;4925764;29;20039;-80
2022/03/03 04:28:21;;;;;;;33.30;19.38;;;;;;;;;;4915726;29;20419;-81
2022/03/03 04:30:48;;;;;;;31.63;18.75;;;;;;;;;;4944035;28;20102;-79
2022/03/03 04:33:14;;;;;;;38.08;20.05;;;;;;;;;;4929546;29;20114;-80
2022/03/03 04:35:39;;;;;;;33.53;19.90;;;;;;;;;;4942863;29;20586;-82
2022/03/03 04:38:04;;;;;;;33.72;20.17;;;;;;;;;;4929150;29;20521;-80
2022/03/03 04:40:30;;;;;;;34.03;19.75;;;;;;;;;;4912412;29;20557;-82
2022/03/03 04:42:55;;;;;;;34.00;19.27;;;;;;;;;;4910682;29;20677;-80
2022/03/03 04:45:20;;;;;;;33.78;19.55;;;;;;;;;;4929615;29;20059;-81
2022/03/03 04:47:45;;;;;;;33.17;20.15;;;;;;;;;;4914127;29;20038;-80
2022/03/03 04:50:11;;;;;;;30.73;19.17;;;;;;;;;;4913513;29;20035;-80
2022/03/03 04:52:36;;;;;;;31.08;18.85;;;;;;;;;;4927601;29;20043;-77
2022/03/03 04:55:04;;;;;;;33.28;19.25;;;;;;;;;;4905632;29;20245;-81
2022/03/03 04:57:30;;;;;;;30.30;18.80;;;;;;;;;;4929614;29;20051;-82
2022/03/03 04:59:56;;;;;;;33.65;19.65;;;;;;;;;;4918489;29;20509;-80
2022/03/03 05:02:21;;;;;;;32.42;19.67;;;;;;;;;;4913659;29;20050;-81
2022/03/03 05:04:46;;;;;;;31.77;19.88;;;;;;;;;;4913712;29;20079;-80
2022/03/03 05:07:12;;;;;;;33.22;19.02;;;;;;;;;;4912725;29;20069;-81
2022/03/03 05:09:37;;;;;;;33.90;19.45;;;;;;;;;;4913252;29;20062;-79
2022/03/03 05:12:03;;;;;;;31.60;19.17;;;;;;;;;;4928963;29;20047;-81
2022/03/03 05:14:28;;;;;;;34.85;20.27;;;;;;;;;;4913115;29;20028;-80
2022/03/03 05:16:54;;;;;;;33.05;20.38;;;;;;;;;;4914142;29;20043;-79
2022/03/03 05:19:19;;;;;;;33.60;19.67;;;;;;;;;;4911213;28;20031;-79
2022/03/03 05:21:44;;;;;;;34.47;19.90;;;;;;;;;;4913881;29;20031;-79
2022/03/03 05:24:12;;;;;;;32.30;21.00;;;;;;;;;;4928882;29;20617;-80
2022/03/03 05:26:38;;;;;;;33.22;20.48;;;;;;;;;;4911816;28;20051;-79
2022/03/03 05:29:03;;;;;;;34.40;20.40;;;;;;;;;;4926856;29;20384;-81
2022/03/03 05:31:28;;;;;;;30.05;19.75;;;;;;;;;;4911307;29;20063;-81
2022/03/03 05:33:54;;;;;;;36.28;21.58;;;;;;;;;;4911715;29;20520;-81
2022/03/03 05:36:19;;;;;;;35.30;20.35;;;;;;;;;;4942866;28;20047;-79
2022/03/03 05:38:44;;;;;;;33.55;21.20;;;;;;;;;;4916756;29;20502;-79
2022/03/03 05:41:11;;;;;;;33.60;21.45;;;;;;;;;;4912473;29;20043;-80
2022/03/03 05:43:36;;;;;;;35.83;21.38;;;;;;;;;;4913658;29;20039;-80
2022/03/03 05:46:02;;;;;;;32.67;21.20;;;;;;;;;;4910864;29;20491;-79
2022/03/03 05:48:28;;;;;;;31.35;20.58;;;;;;;;;;4928870;29;20054;-80
2022/03/03 05:50:55;;;;;;;32.33;20.25;;;;;;;;;;4941251;28;20106;-79
2022/03/03 05:53:21;;;;;;;36.95;21.13;;;;;;;;;;4929382;29;20118;-81
2022/03/03 05:55:49;;;;;;;36.08;22.00;;;;;;;;;;4912596;29;20076;-81
2022/03/03 05:58:15;;;;;;;33.22;20.80;;;;;;;;;;4927842;29;20070;-80
2022/03/03 06:00:45;;;;;;;33.25;21.58;;;;;;;;;;4927284;29;20043;-80
2022/03/03 06:03:18;;;;;;;34.22;21.50;;;;;;;;;;4928888;28;20118;-80
2022/03/03 06:05:49;;;;;;;36.47;22.48;;;;;;;;;;4911162;29;20086;-80
2022/03/03 06:08:17;;;;;;;35.25;21.50;;;;;;;;;;4928838;29;20683;-81
2022/03/03 06:10:50;;;;;;;33.92;21.38;;;;;;;;;;4931903;28;20628;-81
2022/03/03 06:13:21;;;;;;;36.30;21.30;;;;;;;;;;4902809;28;20039;-78
2022/03/03 06:15:47;;;;;;;34.92;20.73;;;;;;;;;;4913571;29;20050;-80
2022/03/03 06:18:13;;;;;;;33.28;21.00;;;;;;;;;;4913134;29;20035;-79
2022/03/03 06:20:40;;;;;;;37.80;21.73;;;;;;;;;;4926555;29;20414;-80
2022/03/03 06:23:05;;;;;;;33.80;20.83;;;;;;;;;;4927131;29;20113;-78
2022/03/03 06:25:30;;;;;;;37.47;22.30;;;;;;;;;;4913577;29;20534;-78
2022/03/03 06:27:56;;;;;;;38.67;22.38;;;;;;;;;;4926651;29;20565;-81
2022/03/03 06:30:24;;;;;;;37.92;21.75;;;;;;;;;;4908726;29;20047;-80
2022/03/03 06:32:49;;;;;;;38.38;21.92;;;;;;;;;;4927836;29;20070;-81
2022/03/03 06:35:16;;;;;;;32.22;21.20;;;;;;;;;;4911917;29;20495;-80
2022/03/03 06:37:41;;;;;;;38.58;22.02;;;;;;;;;;4912181;29;20035;-81
2022/03/03 06:40:07;;;;;;;37.05;23.00;;;;;;;;;;4927417;29;20669;-81
2022/03/03 06:42:32;;;;;;;41.53;22.10;;;;;;;;;;4912203;29;20055;-81
2022/03/03 06:44:57;;;;;;;40.47;24.23;;;;;;;;;;4929383;28;20071;-82
2022/03/03 06:47:23;;;;;;;42.63;22.92;;;;;;;;;;4926051;29;20486;-81
2022/03/03 06:49:49;;;;;;;39.40;23.42;;;;;;;;;;4924902;29;20044;-81
2022/03/03 06:52:16;;;;;;;38.95;22.85;;;;;;;;;;4915049;29;20047;-81
2022/03/03 06:54:46;;;;;;;42.22;23.67;;;;;;;;;;4926840;29;20478;-82
2022/03/03 06:57:11;;;;;;;42.00;24.83;;;;;;;;;;4913738;29;20808;-82
2022/03/03 06:59:38;;;;;;;40.80;22.98;;;;;;;;;;4911871;29;20158;-82
2022/03/03 07:02:04;;;;;;;36.65;23.58;;;;;;;;;;4911118;29;20171;-81
2022/03/03 07:04:29;;;;;;;38.22;23.90;;;;;;;;;;4925614;29;20195;-81
2022/03/03 07:06:55;;;;;;;38.60;23.83;;;;;;;;;;4926032;29;20079;-81
2022/03/03 07:09:21;;;;;;;38.95;23.52;;;;;;;;;;4899907;29;20502;-83
2022/03/03 07:11:49;;;;;;;44.22;25.45;;;;;;;;;;4903297;29;20035;-81
2022/03/03 07:14:14;;;;;;;;;;;;;;;;;;4925792;29;20411;-81
2022/03/03 07:16:46;;;;;;;44.15;25.67;;;;;;;;;;4941621;28;19922;-81
2022/03/03 07:19:26;;;;;;;42.85;25.30;;;;;;;;;;4940867;29;20053;-81
2022/03/03 07:22:28;;;;;;;44.45;25.50;;;;;;;;;;4942467;29;20035;-83
2022/03/03 07:25:04;;;;;;;41.78;25.02;;;;;;;;;;4942446;29;20106;-80
2022/03/03 07:27:30;;;;;;;46.42;24.75;;;;;;;;;;4909772;29;20050;-81
2022/03/03 07:30:07;;;;;;;43.15;26.50;;;;;;;;;;4925007;29;20035;-81
2022/03/03 07:32:34;;;;;;;44.42;26.05;;;;;;;;;;4915008;29;20043;-80
2022/03/03 07:35:09;;;;;;;49.28;26.52;;;;;;;;;;4933034;28;20074;-80
2022/03/03 07:37:39;;;;;;;45.45;26.25;;;;;;;;;;4931529;29;20406;-79
2022/03/03 07:40:09;;;;;;;41.25;26.63;;;;;;;;;;4930907;29;20035;-80
2022/03/03 07:42:35;;;;;;;46.47;27.67;;;;;;;;;;4916343;29;20440;-81
2022/03/03 07:45:03;;;;;;;43.30;26.67;;;;;;;;;;4932076;29;20085;-81
2022/03/03 07:47:29;;;;;;;48.67;27.40;;;;;;;;;;4931797;29;20085;-82
2022/03/03 07:49:55;;;;;;;45.78;27.83;;;;;;;;;;4922215;29;20047;-81
2022/03/03 07:52:21;;;;;;;44.03;27.10;;;;;;;;;;4911955;29;20119;-80
2022/03/03 07:54:46;;;;;;;46.00;27.90;;;;;;;;;;4931362;29;20117;-81
2022/03/03 07:57:15;;;;;;;47.22;29.25;;;;;;;;;;4947057;28;20039;-82
2022/03/03 07:59:46;;;;;;;48.78;28.63;;;;;;;;;;4917611;29;20050;-80
2022/03/03 08:02:18;;;;;;;56.22;31.80;;;;;;;;;;4931570;29;20561;-82
2022/03/03 08:04:43;;;;;;;55.10;32.38;;;;;;;;;;4916834;29;20050;-82
2022/03/03 08:07:09;;;;;;;55.70;33.28;;;;;;;;;;4932470;29;20067;-81
2022/03/03 08:09:37;;;;;;;60.10;34.97;;;;;;;;;;4931718;29;20106;-81
2022/03/03 08:12:04;;;;;;;61.30;35.08;;;;;;;;;;4948618;29;20045;-81
2022/03/03 08:14:30;;;;;;;65.53;37.67;;;;;;;;;;4932577;28;20035;-81
2022/03/03 08:16:56;;;;;;;64.25;38.55;;;;;;;;;;4933846;29;20764;-81
2022/03/03 08:19:22;;;;;;;67.13;40.60;;;;;;;;;;4920711;28;20505;-82
2022/03/03 08:21:48;;;;;;;68.97;40.33;;;;;;;;;;4919298;28;20035;-82
2022/03/03 08:24:14;;;;;;;73.45;42.08;;;;;;;;;;4915916;29;20043;-81
2022/03/03 08:26:41;;;;;;;72.40;42.05;;;;;;;;;;4916334;29;20074;-82
2022/03/03 08:29:07;;;;;;;76.35;42.92;;;;;;;;;;4922172;29;20072;-81
2022/03/03 08:31:36;;;;;;;76.85;43.08;;;;;;;;;;4916523;29;20055;-82
2022/03/03 08:34:10;;;;;;;75.05;42.25;;;;;;;;;;4933076;29;20039;-81
2022/03/03 08:36:44;;;;;;;75.75;41.85;;;;;;;;;;4929878;29;20050;-80
2022/03/03 08:39:12;;;;;;;70.57;40.55;;;;;;;;;;4947368;28;20058;-80
2022/03/03 08:41:39;;;;;;;77.35;42.58;;;;;;;;;;4932961;29;20046;-80
2022/03/03 08:44:07;;;;;;;71.00;38.10;;;;;;;;;;4943949;28;20256;-80
2022/03/03 08:46:34;;;;;;;72.47;38.45;;;;;;;;;;4914634;29;20051;-80
2022/03/03 08:49:01;;;;;;;69.82;38.42;;;;;;;;;;4930032;29;20061;-79
2022/03/03 08:51:27;;;;;;;68.93;37.60;;;;;;;;;;4910866;29;20043;-80
2022/03/03 08:53:53;;;;;;;74.05;37.63;;;;;;;;;;4930027;29;20784;-79
2022/03/03 08:56:18;;;;;;;66.00;35.97;;;;;;;;;;4929828;29;20043;-80
2022/03/03 08:58:44;;;;;;;63.63;34.53;;;;;;;;;;4927803;29;20622;-80
2022/03/03 09:01:10;;;;;;;68.90;37.50;;;;;;;;;;4917257;29;20086;-80
2022/03/03 09:03:35;;;;;;;66.75;36.50;;;;;;;;;;4910863;29;20304;-80
2022/03/03 09:06:01;;;;;;;66.97;35.20;;;;;;;;;;4912879;29;20439;-81
2022/03/03 09:08:27;;;;;;;66.15;37.90;;;;;;;;;;4910883;28;20491;-81
2022/03/03 09:10:52;;;;;;;67.70;37.90;;;;;;;;;;4903225;29;20039;-80
2022/03/03 09:13:17;;;;;;;66.68;36.75;;;;;;;;;;4911821;29;20666;-80
2022/03/03 09:15:43;;;;;;;70.00;37.20;;;;;;;;;;4928533;29;20503;-81
2022/03/03 09:18:08;;;;;;;65.93;37.45;;;;;;;;;;4913830;29;20062;-82
2022/03/03 09:20:34;;;;;;;67.95;36.47;;;;;;;;;;4928725;29;20082;-80
2022/03/03 09:22:59;;;;;;;65.75;34.92;;;;;;;;;;4927016;29;20729;-81
2022/03/03 09:25:25;;;;;;;62.88;35.78;;;;;;;;;;4927602;29;20043;-81
2022/03/03 09:27:50;;;;;;;62.63;33.95;;;;;;;;;;4912642;29;20039;-81
2022/03/03 09:30:16;;;;;;;64.47;33.95;;;;;;;;;;4911840;29;20047;-80
2022/03/03 09:32:41;;;;;;;57.38;32.28;;;;;;;;;;4918884;29;20031;-80
2022/03/03 09:35:07;;;;;;;57.10;30.15;;;;;;;;;;4885956;29;20047;-81
2022/03/03 09:37:33;;;;;;;51.15;28.70;;;;;;;;;;4914365;29;20141;-80
2022/03/03 09:40:02;;;;;;;48.95;27.83;;;;;;;;;;4913355;29;20423;-81
2022/03/03 09:42:31;;;;;;;52.22;27.10;;;;;;;;;;4927929;29;20032;-82
2022/03/03 09:44:57;;;;;;;52.28;27.42;;;;;;;;;;4928692;29;20035;-82
2022/03/03 09:47:22;;;;;;;48.63;26.98;;;;;;;;;;4929131;29;20098;-80
2022/03/03 09:49:48;;;;;;;49.65;26.48;;;;;;;;;;4915510;29;20042;-81
2022/03/03 09:52:14;;;;;;;48.53;25.42;;;;;;;;;;4914461;28;20118;-81
2022/03/03 09:54:41;;;;;;;46.87;24.10;;;;;;;;;;4943479;28;20062;-81
2022/03/03 09:57:07;;;;;;;42.97;24.75;;;;;;;;;;4911721;29;20031;-80
2022/03/03 09:59:34;;;;;;;45.83;24.17;;;;;;;;;;4912394;29;20055;-80
2022/03/03 10:02:06;;;;;;;46.60;24.77;;;;;;;;;;4927746;29;20515;-83
2022/03/03 10:04:32;;;;;;;42.60;24.20;;;;;;;;;;4907643;29;20133;-80
2022/03/03 10:07:03;;;;;;;39.97;21.70;;;;;;;;;;4912392;29;20170;-81
2022/03/03 10:09:29;;;;;;;38.15;21.60;;;;;;;;;;4927205;29;20119;-80
2022/03/03 10:12:10;;;;;;;40.20;23.35;;;;;;;;;;4903819;29;20039;-79
2022/03/03 10:14:37;;;;;;;38.08;22.27;;;;;;;;;;4914160;29;20057;-82
2022/03/03 10:17:04;;;;;;;37.92;21.10;;;;;;;;;;4926470;28;20075;-81
2022/03/03 10:19:29;;;;;;;36.60;20.20;;;;;;;;;;4943789;28;20090;-81
2022/03/03 10:21:55;;;;;;;35.55;21.20;;;;;;;;;;4924947;29;20271;-81
2022/03/03 10:24:27;;;;;;;39.83;20.98;;;;;;;;;;4943853;28;20070;-80
2022/03/03 10:27:02;;;;;;;40.97;21.05;;;;;;;;;;4941751;28;20070;-81
2022/03/03 10:29:28;;;;;;;37.58;20.90;;;;;;;;;;4925738;29;20617;-80
2022/03/03 10:31:55;;;;;;;37.33;20.90;;;;;;;;;;4910996;29;20047;-82
2022/03/03 10:34:34;;;;;;;41.22;20.92;;;;;;;;;;4924235;29;20143;-81
2022/03/03 10:37:02;;;;;;;36.42;20.40;;;;;;;;;;4941370;28;20039;-80
2022/03/03 10:39:39;;;;;;;;;;;;;;;;;;4926729;29;20035;-82
2022/03/03 10:42:13;;;;;;;33.40;17.20;;;;;;;;;;4942683;29;19918;-81
2022/03/03 10:44:39;;;;;;;30.10;17.52;;;;;;;;;;4940297;28;20043;-81
2022/03/03 10:47:07;;;;;;;30.85;17.30;;;;;;;;;;4926178;29;20098;-81
2022/03/03 10:49:36;;;;;;;28.08;15.90;;;;;;;;;;4930661;29;20075;-80
2022/03/03 10:52:11;;;;;;;31.80;15.40;;;;;;;;;;4927628;29;20043;-81
2022/03/03 10:54:54;;;;;;;29.70;15.27;;;;;;;;;;4943930;29;20592;-80
2022/03/03 10:57:29;;;;;;;26.15;14.50;;;;;;;;;;4940677;29;20443;-79
2022/03/03 10:59:57;;;;;;;25.50;13.50;;;;;;;;;;4926286;29;20137;-82
2022/03/03 11:02:25;;;;;;;26.63;13.75;;;;;;;;;;4926507;29;20035;-80
2022/03/03 11:04:51;;;;;;;28.33;14.70;;;;;;;;;;4927208;29;20039;-81
2022/03/03 11:07:18;;;;;;;26.52;13.15;;;;;;;;;;4906204;29;20066;-81
2022/03/03 11:09:44;;;;;;;27.70;13.77;;;;;;;;;;4911251;29;20055;-79
2022/03/03 11:12:09;;;;;;;26.30;13.27;;;;;;;;;;4910884;29;20496;-80
2022/03/03 11:14:35;;;;;;;23.83;12.40;;;;;;;;;;4910343;29;20122;-79
2022/03/03 11:17:00;;;;;;;27.38;13.68;;;;;;;;;;4909660;29;20051;-82
2022/03/03 11:19:26;;;;;;;26.08;13.27;;;;;;;;;;4925275;29;20553;-80
2022/03/03 11:21:51;;;;;;;26.08;13.15;;;;;;;;;;4926593;29;20039;-80
2022/03/03 11:24:18;;;;;;;26.85;13.13;;;;;;;;;;4927535;29;20035;-80
2022/03/03 11:26:45;;;;;;;26.05;12.82;;;;;;;;;;4925719;29;20499;-81
2022/03/03 11:29:12;;;;;;;23.90;12.95;;;;;;;;;;4942815;29;20035;-81
2022/03/03 11:31:39;;;;;;;25.90;13.00;;;;;;;;;;4925439;29;20125;-81
2022/03/03 11:34:37;;;;;;;25.67;13.23;;;;;;;;;;4925518;29;20039;-81
2022/03/03 11:37:09;;;;;;;24.27;11.55;;;;;;;;;;4909981;29;20039;-81
2022/03/03 11:39:53;;;;;;;25.90;12.32;;;;;;;;;;4925395;29;20313;-82
2022/03/03 11:42:22;;;;;;;24.58;11.90;;;;;;;;;;4925609;29;20082;-81
2022/03/03 11:45:01;;;;;;;25.48;12.43;;;;;;;;;;4924605;29;20379;-81
2022/03/03 11:47:34;;;;;;;27.05;13.15;;;;;;;;;;4942838;28;20039;-80
2022/03/03 11:50:00;;;;;;;24.38;12.85;;;;;;;;;;4925372;29;20391;-81
2022/03/03 11:52:26;;;;;;;30.33;14.00;;;;;;;;;;4942521;28;20499;-81
2022/03/03 11:55:00;;;;;;;25.38;12.68;;;;;;;;;;4912760;29;20039;-81
2022/03/03 11:57:29;;;;;;;27.17;13.80;;;;;;;;;;4926324;29;20525;-81
2022/03/03 12:00:00;;;;;;;26.45;13.25;;;;;;;;;;4910807;29;20050;-82
2022/03/03 12:02:30;;;;;;;23.17;11.82;;;;;;;;;;4909096;29;20073;-83
2022/03/03 12:05:27;;;;;;;24.50;12.55;;;;;;;;;;4924934;28;20098;-78
2022/03/03 12:08:05;;;;;;;24.08;12.63;;;;;;;;;;4911409;29;20043;-81
2022/03/03 12:10:31;;;;;;;;;;;;;;;;;;4910230;29;20513;-81
2022/03/03 12:13:34;;;;;;;26.77;12.90;;;;;;;;;;4925854;29;19918;-81
2022/03/03 12:16:35;;;;;;;23.60;11.90;;;;;;;;;;4833516;29;20054;-81
2022/03/03 12:19:00;;;;;;;20.15;10.90;;;;;;;;;;4833911;29;20057;-81
2022/03/03 12:21:57;;;;;;;23.00;12.00;;;;;;;;;;4849291;29;20778;-81
2022/03/03 12:24:32;;;;;;;26.30;12.07;;;;;;;;;;4835290;29;20419;-81
2022/03/03 12:26:59;;;;;;;24.80;12.75;;;;;;;;;;4819110;29;20190;-80
2022/03/03 12:29:28;;;;;;;22.88;11.38;;;;;;;;;;4834161;29;20052;-80
2022/03/03 12:31:53;;;;;;;23.63;11.70;;;;;;;;;;4832752;29;20045;-80
2022/03/03 12:34:20;;;;;;;24.48;12.65;;;;;;;;;;4834153;29;20138;-81
2022/03/03 12:36:45;;;;;;;24.35;12.23;;;;;;;;;;4847575;29;20050;-81
2022/03/03 12:39:12;;;;;;;25.98;13.73;;;;;;;;;;4839619;29;20120;-80
2022/03/03 12:41:40;;;;;;;24.08;12.43;;;;;;;;;;4847286;29;20049;-81
2022/03/03 12:44:11;;;;;;;24.95;13.27;;;;;;;;;;4832138;29;20045;-82
2022/03/03 12:46:36;;;;;;;22.13;12.30;;;;;;;;;;4873059;28;20071;-80
2022/03/03 12:49:06;;;;;;;24.95;12.60;;;;;;;;;;4928774;29;20130;-79
2022/03/03 12:51:32;;;;;;;23.50;12.20;;;;;;;;;;4913009;29;20082;-81
2022/03/03 12:54:02;;;;;;;23.45;12.40;;;;;;;;;;4913970;29;20039;-80
2022/03/03 12:56:28;;;;;;;28.17;12.18;;;;;;;;;;4912911;29;20120;-81
2022/03/03 12:58:54;;;;;;;22.45;11.35;;;;;;;;;;4915201;29;20031;-81
2022/03/03 13:01:23;;;;;;;23.13;11.75;;;;;;;;;;4912695;29;20042;-81
2022/03/03 13:03:49;;;;;;;23.30;12.18;;;;;;;;;;4928384;29;20115;-81
2022/03/03 13:06:19;;;;;;;28.25;12.52;;;;;;;;;;4928074;29;20043;-80
2022/03/03 13:08:44;;;;;;;23.98;12.40;;;;;;;;;;4929873;29;20058;-80
2022/03/03 13:11:17;;;;;;;21.83;12.40;;;;;;;;;;4916730;28;20089;-79
2022/03/03 13:13:49;;;;;;;26.33;12.90;;;;;;;;;;4927643;29;20075;-80
2022/03/03 13:16:19;;;;;;;23.20;12.98;;;;;;;;;;4930376;29;20451;-80
2022/03/03 13:18:45;;;;;;;25.67;13.75;;;;;;;;;;4927177;29;20035;-80
2022/03/03 13:21:12;;;;;;;24.00;13.05;;;;;;;;;;4909898;29;20038;-80
2022/03/03 13:23:45;;;;;;;20.73;11.77;;;;;;;;;;4913561;28;20043;-80
2022/03/03 13:26:25;;;;;;;22.83;10.85;;;;;;;;;;4930396;29;20314;-80
2022/03/03 13:28:56;;;;;;;20.77;11.00;;;;;;;;;;4914222;28;20402;-80
2022/03/03 13:31:23;;;;;;;21.00;10.95;;;;;;;;;;4926748;29;20093;-82
2022/03/03 13:33:52;;;;;;;21.80;12.02;;;;;;;;;;4929323;29;20031;-81
2022/03/03 13:36:29;;;;;;;21.33;11.75;;;;;;;;;;4944603;29;20051;-80
2022/03/03 13:38:56;;;;;;;22.20;11.80;;;;;;;;;;4912954;29;20039;-80
2022/03/03 13:41:34;;;;;;;19.80;11.38;;;;;;;;;;4912483;29;20425;-81
2022/03/03 13:44:11;;;;;;;21.33;10.70;;;;;;;;;;4929442;29;20039;-82
2022/03/03 13:46:37;;;;;;;;;;;;;;;;;;4929552;29;20047;-80
2022/03/03 13:49:03;;;;;;;20.75;9.88;;;;;;;;;;4929414;29;19937;-81
2022/03/03 13:51:29;;;;;;;17.40;9.85;;;;;;;;;;4927763;28;20094;-82
2022/03/03 13:54:01;;;;;;;20.92;10.05;;;;;;;;;;4912160;28;20035;-80
2022/03/03 13:56:28;;;;;;;19.00;9.82;;;;;;;;;;4911329;29;20083;-82
2022/03/03 13:59:04;;;;;;;19.58;9.80;;;;;;;;;;4930533;28;20066;-80
2022/03/03 14:01:30;;;;;;;18.02;9.98;;;;;;;;;;4927972;29;20067;-81
2022/03/03 14:03:55;;;;;;;23.42;10.98;;;;;;;;;;4928879;29;20960;-81
2022/03/03 14:06:20;;;;;;;21.52;11.10;;;;;;;;;;4913455;29;20035;-81
2022/03/03 14:08:46;;;;;;;22.35;11.20;;;;;;;;;;4944353;29;20043;-81
2022/03/03 14:11:27;;;;;;;20.33;10.23;;;;;;;;;;4910795;29;20053;-80
2022/03/03 14:13:55;;;;;;;25.70;11.48;;;;;;;;;;4928165;29;20039;-82
2022/03/03 14:16:26;;;;;;;21.00;11.07;;;;;;;;;;4926807;29;20076;-81
2022/03/03 14:18:53;;;;;;;21.70;10.63;;;;;;;;;;4928508;29;20474;-82
2022/03/03 14:21:19;;;;;;;24.40;11.27;;;;;;;;;;4912113;29;20762;-81